GLO7473 SMJP-SBBE
Flight info
| Callsign | GLO7473 |
|---|---|
| Flight time | 1h 31m |
| Altitude | 37000 |
| Route | DCT ZY DCT VILAS UG449 OTONI UZ41 KOGVU |
| Aircraft | B738/M-SDFGIKLORWXY/LB1 |
Departure
| Time | 2026-04-26 04:38 |
|---|---|
| Airport | Johan Adolf Pengel International Airport (SMJP) |
Arrival
| Time | 2026-04-26 06:10 |
|---|---|
| Airport | Val de Cans/Júlio Cezar Ribeiro International Airport (SBBE) |
| Time | Latitude | Longitude | Altitude | Speed | Heading |
|---|---|---|---|---|---|
| 2026-04-26 04:07 | 5.45524 | -55.20039 | 57 ft | 0 kts | 359° |
| 2026-04-26 04:29 | 5.45504 | -55.20039 | 53 ft | 4 kts | 360° |
| 2026-04-26 04:29 | 5.45477 | -55.20039 | 52 ft | 4 kts | 0° |
| 2026-04-26 04:30 | 5.45454 | -55.20040 | 55 ft | 4 kts | 24° |
| 2026-04-26 04:30 | 5.45441 | -55.20055 | 51 ft | 4 kts | 95° |
| 2026-04-26 04:30 | 5.45445 | -55.20081 | 59 ft | 3 kts | 94° |
| 2026-04-26 04:30 | 5.45446 | -55.20085 | 59 ft | 1 kts | 91° |
| 2026-04-26 04:33 | 5.45446 | -55.20081 | 59 ft | 2 kts | 91° |
| 2026-04-26 04:33 | 5.45441 | -55.20053 | 51 ft | 5 kts | 123° |
| 2026-04-26 04:33 | 5.45402 | -55.20053 | 57 ft | 7 kts | 200° |
| 2026-04-26 04:33 | 5.45382 | -55.20061 | 53 ft | 0 kts | 200° |
| 2026-04-26 04:36 | 5.45378 | -55.20062 | 54 ft | 3 kts | 200° |
| 2026-04-26 04:36 | 5.45336 | -55.20071 | 54 ft | 8 kts | 180° |
| 2026-04-26 04:37 | 5.45291 | -55.20048 | 56 ft | 7 kts | 126° |
| 2026-04-26 04:37 | 5.45280 | -55.19970 | 59 ft | 24 kts | 87° |
| 2026-04-26 04:37 | 5.45283 | -55.19551 | 65 ft | 95 kts | 89° |
| 2026-04-26 04:37 | 5.45288 | -55.18666 | 53 ft | 156 kts | 89° |
| 2026-04-26 04:38 | 5.45287 | -55.17447 | 379 ft | 182 kts | 90° |
| 2026-04-26 04:38 | 5.45270 | -55.16194 | 1314 ft | 175 kts | 90° |
| 2026-04-26 04:38 | 5.45272 | -55.14966 | 2090 ft | 183 kts | 89° |
| 2026-04-26 04:38 | 5.45301 | -55.13601 | 2336 ft | 208 kts | 89° |
| 2026-04-26 04:39 | 5.45344 | -55.12089 | 2721 ft | 224 kts | 89° |
| 2026-04-26 04:39 | 5.45393 | -55.10436 | 3005 ft | 246 kts | 89° |
| 2026-04-26 04:39 | 5.45415 | -55.08695 | 3760 ft | 250 kts | 96° |
| 2026-04-26 04:39 | 5.44757 | -55.07103 | 4600 ft | 254 kts | 131° |
| 2026-04-26 04:40 | 5.43376 | -55.05975 | 5405 ft | 258 kts | 140° |
| 2026-04-26 04:40 | 5.41944 | -55.04852 | 6166 ft | 263 kts | 139° |
| 2026-04-26 04:40 | 5.40500 | -55.03704 | 6913 ft | 267 kts | 139° |
| 2026-04-26 04:40 | 5.39058 | -55.02549 | 7666 ft | 269 kts | 139° |
| 2026-04-26 04:41 | 5.37589 | -55.01364 | 8416 ft | 272 kts | 139° |
| 2026-04-26 04:41 | 5.36105 | -55.00162 | 9156 ft | 276 kts | 138° |
| 2026-04-26 04:41 | 5.34600 | -54.98938 | 9890 ft | 280 kts | 138° |
| 2026-04-26 04:41 | 5.33063 | -54.97685 | 10373 ft | 293 kts | 138° |
| 2026-04-26 04:42 | 5.31419 | -54.96339 | 10562 ft | 315 kts | 138° |
| 2026-04-26 04:42 | 5.29692 | -54.94925 | 11065 ft | 324 kts | 138° |
| 2026-04-26 04:42 | 5.27933 | -54.93487 | 11725 ft | 327 kts | 138° |
| 2026-04-26 04:42 | 5.26161 | -54.92038 | 12394 ft | 330 kts | 138° |
| 2026-04-26 04:43 | 5.24372 | -54.90573 | 13041 ft | 334 kts | 139° |
| 2026-04-26 04:43 | 5.22560 | -54.89090 | 13674 ft | 338 kts | 139° |
| 2026-04-26 04:43 | 5.20751 | -54.87608 | 14238 ft | 341 kts | 139° |
| 2026-04-26 04:43 | 5.18903 | -54.86094 | 14838 ft | 344 kts | 139° |
| 2026-04-26 04:44 | 5.17041 | -54.84570 | 15427 ft | 346 kts | 139° |
| 2026-04-26 04:44 | 5.15171 | -54.83037 | 15995 ft | 349 kts | 139° |
| 2026-04-26 04:44 | 5.13282 | -54.81490 | 16556 ft | 352 kts | 139° |
| 2026-04-26 04:44 | 5.11378 | -54.79930 | 17124 ft | 355 kts | 139° |
| 2026-04-26 04:45 | 5.09451 | -54.78352 | 17686 ft | 358 kts | 139° |
| 2026-04-26 04:45 | 5.07512 | -54.76764 | 18228 ft | 361 kts | 139° |
| 2026-04-26 04:45 | 5.05558 | -54.75164 | 18688 ft | 364 kts | 139° |
| 2026-04-26 04:45 | 5.03587 | -54.73550 | 19124 ft | 368 kts | 139° |
| 2026-04-26 04:46 | 5.01597 | -54.71920 | 19558 ft | 371 kts | 139° |
| 2026-04-26 04:46 | 4.99613 | -54.70296 | 20007 ft | 374 kts | 139° |
| 2026-04-26 04:46 | 4.97588 | -54.68637 | 20451 ft | 377 kts | 139° |
| 2026-04-26 04:46 | 4.95541 | -54.66961 | 20885 ft | 380 kts | 139° |
| 2026-04-26 04:47 | 4.93484 | -54.65277 | 21318 ft | 383 kts | 139° |
| 2026-04-26 04:47 | 4.92084 | -54.64131 | 21608 ft | 385 kts | 139° |
| 2026-04-26 04:47 | 4.90025 | -54.62446 | 22026 ft | 388 kts | 139° |
| 2026-04-26 04:47 | 4.87916 | -54.60720 | 22444 ft | 391 kts | 139° |
| 2026-04-26 04:48 | 4.83660 | -54.57237 | 23263 ft | 397 kts | 139° |
| 2026-04-26 04:48 | 4.81512 | -54.55479 | 23627 ft | 400 kts | 139° |
| 2026-04-26 04:48 | 4.79345 | -54.53706 | 23977 ft | 402 kts | 139° |
| 2026-04-26 04:49 | 4.77172 | -54.51929 | 24352 ft | 404 kts | 139° |
| 2026-04-26 04:49 | 4.74996 | -54.50148 | 24721 ft | 405 kts | 139° |
| 2026-04-26 04:49 | 4.72806 | -54.48356 | 25063 ft | 407 kts | 139° |
| 2026-04-26 04:49 | 4.70605 | -54.46556 | 25407 ft | 409 kts | 139° |
| 2026-04-26 04:50 | 4.68401 | -54.44753 | 25765 ft | 410 kts | 139° |
| 2026-04-26 04:50 | 4.66198 | -54.42920 | 26116 ft | 411 kts | 136° |
| 2026-04-26 04:50 | 4.64092 | -54.40972 | 26455 ft | 413 kts | 134° |
| 2026-04-26 04:50 | 4.62051 | -54.38993 | 26792 ft | 414 kts | 134° |
| 2026-04-26 04:51 | 4.59970 | -54.36941 | 27133 ft | 415 kts | 134° |
| 2026-04-26 04:51 | 4.57925 | -54.34922 | 27461 ft | 417 kts | 134° |
| 2026-04-26 04:51 | 4.55851 | -54.32883 | 27787 ft | 419 kts | 134° |
| 2026-04-26 04:51 | 4.53762 | -54.30838 | 28108 ft | 420 kts | 134° |
| 2026-04-26 04:52 | 4.51660 | -54.28790 | 28425 ft | 422 kts | 134° |
| 2026-04-26 04:52 | 4.49547 | -54.26737 | 28749 ft | 424 kts | 134° |
| 2026-04-26 04:52 | 4.47420 | -54.24673 | 29042 ft | 425 kts | 134° |
| 2026-04-26 04:52 | 4.45287 | -54.22605 | 29329 ft | 427 kts | 134° |
| 2026-04-26 04:53 | 4.43147 | -54.20531 | 29622 ft | 429 kts | 134° |
| 2026-04-26 04:53 | 4.40999 | -54.18450 | 29922 ft | 430 kts | 134° |
| 2026-04-26 04:53 | 4.38843 | -54.16362 | 30181 ft | 432 kts | 134° |
| 2026-04-26 04:53 | 4.36708 | -54.14292 | 30407 ft | 433 kts | 134° |
| 2026-04-26 04:54 | 4.34537 | -54.12190 | 30641 ft | 435 kts | 134° |
| 2026-04-26 04:54 | 4.32360 | -54.10080 | 30872 ft | 437 kts | 134° |
| 2026-04-26 04:54 | 4.30173 | -54.07962 | 31106 ft | 438 kts | 134° |
| 2026-04-26 04:54 | 4.27980 | -54.05837 | 31331 ft | 439 kts | 134° |
| 2026-04-26 04:55 | 4.25780 | -54.03706 | 31545 ft | 441 kts | 134° |
| 2026-04-26 04:55 | 4.23568 | -54.01564 | 31752 ft | 442 kts | 134° |
| 2026-04-26 04:55 | 4.21440 | -53.99502 | 31953 ft | 444 kts | 134° |
| 2026-04-26 04:55 | 4.19214 | -53.97347 | 32170 ft | 445 kts | 134° |
| 2026-04-26 04:56 | 4.16985 | -53.95188 | 32374 ft | 446 kts | 134° |
| 2026-04-26 04:56 | 4.14750 | -53.93025 | 32593 ft | 447 kts | 134° |
| 2026-04-26 04:56 | 4.12514 | -53.90860 | 32878 ft | 446 kts | 134° |
| 2026-04-26 04:56 | 4.10316 | -53.88733 | 33198 ft | 444 kts | 134° |
| 2026-04-26 04:57 | 4.08098 | -53.86586 | 33511 ft | 443 kts | 134° |
| 2026-04-26 04:57 | 4.05882 | -53.84441 | 33774 ft | 443 kts | 134° |
| 2026-04-26 04:57 | 4.03667 | -53.82297 | 34021 ft | 443 kts | 134° |
| 2026-04-26 04:57 | 4.01456 | -53.80158 | 34268 ft | 441 kts | 134° |
| 2026-04-26 04:58 | 3.99260 | -53.78033 | 34540 ft | 440 kts | 134° |
| 2026-04-26 04:58 | 3.97065 | -53.75909 | 34801 ft | 438 kts | 134° |
| 2026-04-26 04:58 | 3.94872 | -53.73787 | 35035 ft | 438 kts | 134° |
| 2026-04-26 04:58 | 3.92688 | -53.71674 | 35290 ft | 436 kts | 134° |
| 2026-04-26 04:59 | 3.90502 | -53.69559 | 35562 ft | 434 kts | 134° |
| 2026-04-26 04:59 | 3.88329 | -53.67457 | 35782 ft | 434 kts | 134° |
| 2026-04-26 04:59 | 3.86161 | -53.65359 | 35971 ft | 434 kts | 134° |
| 2026-04-26 04:59 | 3.83987 | -53.63256 | 36184 ft | 433 kts | 134° |
| 2026-04-26 05:00 | 3.81825 | -53.61166 | 36422 ft | 432 kts | 134° |
| 2026-04-26 05:00 | 3.79696 | -53.59106 | 36674 ft | 430 kts | 134° |
| 2026-04-26 05:00 | 3.77543 | -53.57025 | 36865 ft | 430 kts | 134° |
| 2026-04-26 05:00 | 3.75389 | -53.54941 | 36952 ft | 431 kts | 134° |
| 2026-04-26 05:01 | 3.71053 | -53.50747 | 36954 ft | 433 kts | 134° |
| 2026-04-26 05:01 | 3.66738 | -53.46577 | 36958 ft | 429 kts | 134° |
| 2026-04-26 05:02 | 3.62450 | -53.42437 | 36959 ft | 427 kts | 134° |
| 2026-04-26 05:02 | 3.58206 | -53.38342 | 36958 ft | 425 kts | 134° |
| 2026-04-26 05:03 | 3.53955 | -53.34240 | 36959 ft | 424 kts | 134° |
| 2026-04-26 05:03 | 3.49712 | -53.30144 | 36959 ft | 423 kts | 134° |
| 2026-04-26 05:04 | 3.45471 | -53.26051 | 36962 ft | 424 kts | 134° |
| 2026-04-26 05:04 | 3.41213 | -53.21943 | 36961 ft | 425 kts | 134° |
| 2026-04-26 05:05 | 3.36946 | -53.17825 | 36956 ft | 426 kts | 134° |
| 2026-04-26 05:05 | 3.32697 | -53.13726 | 36956 ft | 427 kts | 134° |
| 2026-04-26 05:06 | 3.28382 | -53.09564 | 36956 ft | 428 kts | 134° |
| 2026-04-26 05:06 | 3.24109 | -53.05443 | 36956 ft | 429 kts | 134° |
| 2026-04-26 05:07 | 3.19798 | -53.01286 | 36956 ft | 430 kts | 134° |
| 2026-04-26 05:07 | 3.15572 | -52.97210 | 36951 ft | 430 kts | 134° |
| 2026-04-26 05:08 | 3.11260 | -52.93053 | 36953 ft | 430 kts | 134° |
| 2026-04-26 05:08 | 3.06950 | -52.88898 | 36957 ft | 430 kts | 134° |
| 2026-04-26 05:09 | 3.02670 | -52.84773 | 36952 ft | 429 kts | 134° |
| 2026-04-26 05:09 | 2.98371 | -52.80630 | 36950 ft | 429 kts | 134° |
| 2026-04-26 05:10 | 2.94074 | -52.76489 | 36952 ft | 428 kts | 134° |
| 2026-04-26 05:10 | 2.89782 | -52.72353 | 36954 ft | 428 kts | 134° |
| 2026-04-26 05:11 | 2.85497 | -52.68224 | 36948 ft | 427 kts | 134° |
| 2026-04-26 05:11 | 2.81216 | -52.64100 | 36950 ft | 427 kts | 134° |
| 2026-04-26 05:12 | 2.76937 | -52.59978 | 36949 ft | 427 kts | 134° |
| 2026-04-26 05:12 | 2.72683 | -52.55880 | 36947 ft | 427 kts | 134° |
| 2026-04-26 05:13 | 2.68401 | -52.51755 | 36951 ft | 427 kts | 134° |
| 2026-04-26 05:13 | 2.63964 | -52.47788 | 36956 ft | 428 kts | 139° |
| 2026-04-26 05:14 | 2.59296 | -52.44066 | 36951 ft | 429 kts | 140° |
| 2026-04-26 05:14 | 2.54606 | -52.40357 | 36948 ft | 430 kts | 139° |
| 2026-04-26 05:15 | 2.49927 | -52.36624 | 36952 ft | 430 kts | 139° |
| 2026-04-26 05:15 | 2.45258 | -52.32877 | 36953 ft | 431 kts | 139° |
| 2026-04-26 05:16 | 2.40579 | -52.29116 | 36949 ft | 431 kts | 139° |
| 2026-04-26 05:16 | 2.35930 | -52.25379 | 36947 ft | 432 kts | 139° |
| 2026-04-26 05:17 | 2.31245 | -52.21615 | 36951 ft | 432 kts | 139° |
| 2026-04-26 05:17 | 2.26554 | -52.17846 | 36950 ft | 432 kts | 139° |
| 2026-04-26 05:18 | 2.21870 | -52.14083 | 36948 ft | 432 kts | 139° |
| 2026-04-26 05:18 | 2.17183 | -52.10318 | 36946 ft | 432 kts | 139° |
| 2026-04-26 05:19 | 2.12492 | -52.06549 | 36948 ft | 432 kts | 139° |
| 2026-04-26 05:19 | 2.07825 | -52.02801 | 36952 ft | 432 kts | 139° |
| 2026-04-26 05:20 | 2.03242 | -51.99121 | 36948 ft | 431 kts | 139° |
| 2026-04-26 05:20 | 1.98567 | -51.95366 | 36950 ft | 431 kts | 139° |
| 2026-04-26 05:21 | 1.93893 | -51.91613 | 36948 ft | 431 kts | 139° |
| 2026-04-26 05:21 | 1.89223 | -51.87864 | 36949 ft | 430 kts | 139° |
| 2026-04-26 05:22 | 1.84553 | -51.84114 | 36949 ft | 430 kts | 139° |
| 2026-04-26 05:22 | 1.79918 | -51.80393 | 36948 ft | 430 kts | 139° |
| 2026-04-26 05:23 | 1.75257 | -51.76651 | 36946 ft | 429 kts | 139° |
| 2026-04-26 05:23 | 1.70598 | -51.72911 | 36944 ft | 430 kts | 139° |
| 2026-04-26 05:24 | 1.65931 | -51.69165 | 36948 ft | 430 kts | 139° |
| 2026-04-26 05:24 | 1.61269 | -51.65423 | 36946 ft | 430 kts | 139° |
| 2026-04-26 05:25 | 1.56605 | -51.61679 | 36945 ft | 430 kts | 139° |
| 2026-04-26 05:25 | 1.51971 | -51.57960 | 36952 ft | 430 kts | 139° |
| 2026-04-26 05:26 | 1.47301 | -51.54213 | 36944 ft | 430 kts | 139° |
| 2026-04-26 05:26 | 1.42623 | -51.50460 | 36944 ft | 431 kts | 139° |
| 2026-04-26 05:27 | 1.37950 | -51.46710 | 36946 ft | 431 kts | 139° |
| 2026-04-26 05:27 | 1.33268 | -51.42953 | 36940 ft | 431 kts | 139° |
| 2026-04-26 05:28 | 1.28591 | -51.39201 | 36942 ft | 432 kts | 139° |
| 2026-04-26 05:28 | 1.23932 | -51.35463 | 36942 ft | 432 kts | 139° |
| 2026-04-26 05:29 | 1.19242 | -51.31700 | 36953 ft | 433 kts | 139° |
| 2026-04-26 05:29 | 1.14535 | -51.27924 | 36947 ft | 433 kts | 139° |
| 2026-04-26 05:30 | 1.09830 | -51.24150 | 36936 ft | 434 kts | 139° |
| 2026-04-26 05:30 | 1.05116 | -51.20369 | 36934 ft | 434 kts | 139° |
| 2026-04-26 05:31 | 1.00430 | -51.16610 | 36938 ft | 435 kts | 139° |
| 2026-04-26 05:31 | 0.95714 | -51.12826 | 36941 ft | 435 kts | 139° |
| 2026-04-26 05:32 | 0.90980 | -51.09029 | 36943 ft | 436 kts | 139° |
| 2026-04-26 05:32 | 0.86247 | -51.05233 | 36945 ft | 436 kts | 139° |
| 2026-04-26 05:33 | 0.82318 | -51.02081 | 36943 ft | 436 kts | 139° |
| 2026-04-26 05:33 | 0.77674 | -50.98356 | 36938 ft | 436 kts | 139° |
| 2026-04-26 05:34 | 0.72950 | -50.94555 | 36933 ft | 435 kts | 139° |
| 2026-04-26 05:34 | 0.67492 | -50.90109 | 36928 ft | 435 kts | 139° |
| 2026-04-26 05:35 | 0.63586 | -50.86922 | 36942 ft | 435 kts | 139° |
| 2026-04-26 05:35 | 0.58894 | -50.83099 | 36941 ft | 435 kts | 139° |
| 2026-04-26 05:36 | 0.54202 | -50.79278 | 36937 ft | 435 kts | 139° |
| 2026-04-26 05:36 | 0.49497 | -50.75448 | 36930 ft | 435 kts | 139° |
| 2026-04-26 05:37 | 0.44792 | -50.71617 | 36928 ft | 436 kts | 139° |
| 2026-04-26 05:37 | 0.40090 | -50.67789 | 36926 ft | 436 kts | 139° |
| 2026-04-26 05:38 | 0.35381 | -50.63955 | 36921 ft | 436 kts | 139° |
| 2026-04-26 05:38 | 0.30703 | -50.60147 | 36927 ft | 437 kts | 139° |
| 2026-04-26 05:39 | 0.25988 | -50.56308 | 36933 ft | 438 kts | 139° |
| 2026-04-26 05:39 | 0.21263 | -50.52462 | 36928 ft | 438 kts | 139° |
| 2026-04-26 05:40 | 0.16528 | -50.48607 | 36933 ft | 439 kts | 139° |
| 2026-04-26 05:40 | 0.11778 | -50.44740 | 36927 ft | 440 kts | 139° |
| 2026-04-26 05:41 | 0.07060 | -50.40900 | 36929 ft | 440 kts | 139° |
| 2026-04-26 05:41 | 0.02309 | -50.37032 | 36941 ft | 441 kts | 139° |
| 2026-04-26 05:42 | -0.02448 | -50.33160 | 36940 ft | 441 kts | 138° |
| 2026-04-26 05:42 | -0.07201 | -50.29290 | 36920 ft | 441 kts | 138° |
| 2026-04-26 05:43 | -0.11951 | -50.25424 | 36869 ft | 441 kts | 138° |
| 2026-04-26 05:43 | -0.14341 | -50.23477 | 36395 ft | 445 kts | 139° |
| 2026-04-26 05:43 | -0.16740 | -50.21524 | 35861 ft | 443 kts | 139° |
| 2026-04-26 05:44 | -0.19129 | -50.19579 | 35286 ft | 443 kts | 139° |
| 2026-04-26 05:44 | -0.21528 | -50.17627 | 34699 ft | 444 kts | 139° |
| 2026-04-26 05:44 | -0.23901 | -50.15695 | 34078 ft | 446 kts | 139° |
| 2026-04-26 05:44 | -0.26312 | -50.13732 | 33378 ft | 448 kts | 139° |
| 2026-04-26 05:45 | -0.28731 | -50.11762 | 32722 ft | 448 kts | 139° |
| 2026-04-26 05:45 | -0.31153 | -50.09791 | 32061 ft | 449 kts | 139° |
| 2026-04-26 05:45 | -0.33570 | -50.07824 | 31590 ft | 446 kts | 139° |
| 2026-04-26 05:45 | -0.35962 | -50.05877 | 31119 ft | 442 kts | 139° |
| 2026-04-26 05:46 | -0.38338 | -50.03944 | 30667 ft | 439 kts | 139° |
| 2026-04-26 05:46 | -0.40702 | -50.02019 | 30220 ft | 436 kts | 139° |
| 2026-04-26 05:46 | -0.43047 | -50.00110 | 29733 ft | 433 kts | 139° |
| 2026-04-26 05:46 | -0.45284 | -49.98288 | 29247 ft | 430 kts | 139° |
| 2026-04-26 05:47 | -0.47593 | -49.96409 | 28779 ft | 426 kts | 139° |
| 2026-04-26 05:47 | -0.49881 | -49.94546 | 28287 ft | 422 kts | 138° |
| 2026-04-26 05:47 | -0.52149 | -49.92699 | 27841 ft | 419 kts | 138° |
| 2026-04-26 05:47 | -0.54370 | -49.90890 | 27402 ft | 415 kts | 138° |
| 2026-04-26 05:48 | -0.56601 | -49.89073 | 26962 ft | 412 kts | 138° |
| 2026-04-26 05:48 | -0.58822 | -49.87263 | 26527 ft | 409 kts | 138° |
| 2026-04-26 05:48 | -0.61026 | -49.85468 | 26092 ft | 407 kts | 139° |
| 2026-04-26 05:48 | -0.63217 | -49.83685 | 25658 ft | 405 kts | 139° |
| 2026-04-26 05:49 | -0.65398 | -49.81910 | 25219 ft | 403 kts | 139° |
| 2026-04-26 05:49 | -0.69740 | -49.78377 | 24325 ft | 401 kts | 139° |
| 2026-04-26 05:49 | -0.71901 | -49.76618 | 23881 ft | 400 kts | 139° |
| 2026-04-26 05:50 | -0.74028 | -49.74886 | 23434 ft | 400 kts | 139° |
| 2026-04-26 05:50 | -0.76211 | -49.73108 | 22925 ft | 398 kts | 139° |
| 2026-04-26 05:50 | -0.78304 | -49.71406 | 22470 ft | 388 kts | 139° |
| 2026-04-26 05:50 | -0.80370 | -49.69726 | 22040 ft | 378 kts | 139° |
| 2026-04-26 05:51 | -0.82300 | -49.68002 | 21598 ft | 367 kts | 127° |
| 2026-04-26 05:51 | -0.83715 | -49.65920 | 21240 ft | 357 kts | 120° |
| 2026-04-26 05:51 | -0.85032 | -49.63840 | 20837 ft | 353 kts | 120° |
| 2026-04-26 05:51 | -0.86364 | -49.61740 | 20480 ft | 365 kts | 120° |
| 2026-04-26 05:52 | -0.87765 | -49.59541 | 20034 ft | 382 kts | 121° |
| 2026-04-26 05:52 | -0.89203 | -49.57302 | 19589 ft | 382 kts | 121° |
| 2026-04-26 05:52 | -0.90623 | -49.55104 | 19158 ft | 380 kts | 121° |
| 2026-04-26 05:52 | -0.92059 | -49.52887 | 18725 ft | 379 kts | 121° |
| 2026-04-26 05:53 | -0.93493 | -49.50677 | 18290 ft | 378 kts | 121° |
| 2026-04-26 05:53 | -0.94923 | -49.48474 | 17816 ft | 377 kts | 121° |
| 2026-04-26 05:53 | -0.96347 | -49.46281 | 17369 ft | 375 kts | 121° |
| 2026-04-26 05:53 | -0.97762 | -49.44102 | 16938 ft | 372 kts | 121° |
| 2026-04-26 05:54 | -0.99168 | -49.41936 | 16511 ft | 370 kts | 121° |
| 2026-04-26 05:54 | -1.00559 | -49.39793 | 16092 ft | 368 kts | 122° |
| 2026-04-26 05:54 | -1.01951 | -49.37648 | 15672 ft | 366 kts | 122° |
| 2026-04-26 05:54 | -1.03338 | -49.35511 | 15244 ft | 365 kts | 122° |
| 2026-04-26 05:55 | -1.04698 | -49.33416 | 14814 ft | 363 kts | 122° |
| 2026-04-26 05:55 | -1.06074 | -49.31295 | 14404 ft | 362 kts | 122° |
| 2026-04-26 05:55 | -1.07442 | -49.29186 | 13982 ft | 361 kts | 122° |
| 2026-04-26 05:55 | -1.08808 | -49.27082 | 13543 ft | 360 kts | 122° |
| 2026-04-26 05:56 | -1.10167 | -49.24987 | 13102 ft | 358 kts | 122° |
| 2026-04-26 05:56 | -1.11519 | -49.22905 | 12685 ft | 355 kts | 122° |
| 2026-04-26 05:56 | -1.12857 | -49.20841 | 12269 ft | 353 kts | 122° |
| 2026-04-26 05:56 | -1.14191 | -49.18786 | 11861 ft | 351 kts | 122° |
| 2026-04-26 05:57 | -1.15513 | -49.16747 | 11462 ft | 348 kts | 122° |
| 2026-04-26 05:57 | -1.16808 | -49.14751 | 11070 ft | 346 kts | 122° |
| 2026-04-26 05:57 | -1.18114 | -49.12740 | 10663 ft | 344 kts | 122° |
| 2026-04-26 05:57 | -1.19410 | -49.10742 | 10383 ft | 338 kts | 122° |
| 2026-04-26 05:58 | -1.20674 | -49.08793 | 10200 ft | 330 kts | 122° |
| 2026-04-26 05:58 | -1.21903 | -49.06896 | 10061 ft | 321 kts | 122° |
| 2026-04-26 05:58 | -1.23089 | -49.05066 | 9906 ft | 306 kts | 122° |
| 2026-04-26 05:58 | -1.24210 | -49.03336 | 9729 ft | 291 kts | 122° |
| 2026-04-26 05:59 | -1.25309 | -49.01640 | 9347 ft | 285 kts | 122° |
| 2026-04-26 05:59 | -1.26373 | -48.99996 | 9023 ft | 278 kts | 122° |
| 2026-04-26 05:59 | -1.27378 | -48.98445 | 8736 ft | 271 kts | 122° |
| 2026-04-26 05:59 | -1.28388 | -48.96886 | 8459 ft | 264 kts | 122° |
| 2026-04-26 06:00 | -1.29381 | -48.95352 | 8194 ft | 261 kts | 122° |
| 2026-04-26 06:00 | -1.30366 | -48.93830 | 7939 ft | 261 kts | 122° |
| 2026-04-26 06:00 | -1.31364 | -48.92289 | 7696 ft | 269 kts | 122° |
| 2026-04-26 06:00 | -1.32383 | -48.90714 | 7422 ft | 276 kts | 122° |
| 2026-04-26 06:01 | -1.33425 | -48.89105 | 7132 ft | 274 kts | 122° |
| 2026-04-26 06:01 | -1.34459 | -48.87507 | 6841 ft | 272 kts | 122° |
| 2026-04-26 06:01 | -1.35481 | -48.85930 | 6434 ft | 269 kts | 122° |
| 2026-04-26 06:01 | -1.36496 | -48.84361 | 5980 ft | 268 kts | 122° |
| 2026-04-26 06:02 | -1.37508 | -48.82799 | 5532 ft | 267 kts | 122° |
| 2026-04-26 06:02 | -1.38517 | -48.81240 | 5100 ft | 265 kts | 122° |
| 2026-04-26 06:02 | -1.39515 | -48.79698 | 4685 ft | 263 kts | 122° |
| 2026-04-26 06:02 | -1.40504 | -48.78170 | 4236 ft | 261 kts | 122° |
| 2026-04-26 06:03 | -1.41489 | -48.76650 | 3810 ft | 260 kts | 123° |
| 2026-04-26 06:03 | -1.42471 | -48.75134 | 3402 ft | 258 kts | 123° |
| 2026-04-26 06:03 | -1.43445 | -48.73635 | 3014 ft | 256 kts | 123° |
| 2026-04-26 06:03 | -1.44399 | -48.72170 | 2583 ft | 255 kts | 123° |
| 2026-04-26 06:04 | -1.45361 | -48.70694 | 2362 ft | 246 kts | 122° |
| 2026-04-26 06:04 | -1.46270 | -48.69287 | 2360 ft | 237 kts | 120° |
| 2026-04-26 06:04 | -1.47019 | -48.67820 | 2388 ft | 241 kts | 115° |
| 2026-04-26 06:04 | -1.47749 | -48.66245 | 2687 ft | 253 kts | 115° |
| 2026-04-26 06:05 | -1.48505 | -48.64627 | 2688 ft | 258 kts | 115° |
| 2026-04-26 06:05 | -1.49261 | -48.63030 | 2684 ft | 247 kts | 115° |
| 2026-04-26 06:05 | -1.49938 | -48.61545 | 2674 ft | 228 kts | 108° |
| 2026-04-26 06:05 | -1.49956 | -48.60065 | 2652 ft | 209 kts | 70° |
| 2026-04-26 06:06 | -1.49105 | -48.58948 | 2473 ft | 198 kts | 45° |
| 2026-04-26 06:06 | -1.48151 | -48.58015 | 2309 ft | 186 kts | 49° |
| 2026-04-26 06:06 | -1.47283 | -48.57122 | 2146 ft | 172 kts | 48° |
| 2026-04-26 06:06 | -1.46492 | -48.56317 | 2072 ft | 156 kts | 48° |
| 2026-04-26 06:07 | -1.45744 | -48.55556 | 1923 ft | 152 kts | 48° |
| 2026-04-26 06:07 | -1.45013 | -48.54813 | 1739 ft | 148 kts | 48° |
| 2026-04-26 06:07 | -1.44295 | -48.54083 | 1553 ft | 147 kts | 48° |
| 2026-04-26 06:07 | -1.43583 | -48.53359 | 1368 ft | 148 kts | 47° |
| 2026-04-26 06:08 | -1.42861 | -48.52625 | 1173 ft | 148 kts | 48° |
| 2026-04-26 06:08 | -1.42144 | -48.51898 | 984 ft | 146 kts | 48° |
| 2026-04-26 06:08 | -1.41426 | -48.51167 | 792 ft | 148 kts | 47° |
| 2026-04-26 06:08 | -1.40705 | -48.50438 | 605 ft | 146 kts | 46° |
| 2026-04-26 06:09 | -1.39996 | -48.49722 | 409 ft | 143 kts | 46° |
| 2026-04-26 06:09 | -1.39310 | -48.49015 | 233 ft | 142 kts | 47° |
| 2026-04-26 06:09 | -1.38608 | -48.48305 | 51 ft | 140 kts | 47° |
| 2026-04-26 06:09 | -1.38038 | -48.47727 | 41 ft | 74 kts | 45° |
| 2026-04-26 06:10 | -1.37921 | -48.47602 | 38 ft | 2 kts | 84° |
| 2026-04-26 06:10 | -1.37928 | -48.47595 | 38 ft | 1 kts | 153° |
| 2026-04-26 06:10 | -1.37940 | -48.47600 | 37 ft | 3 kts | 206° |
| 2026-04-26 06:10 | -1.37970 | -48.47613 | 38 ft | 7 kts | 198° |
| 2026-04-26 06:11 | -1.38033 | -48.47625 | 39 ft | 11 kts | 186° |
| 2026-04-26 06:11 | -1.38114 | -48.47634 | 41 ft | 13 kts | 186° |
| 2026-04-26 06:11 | -1.38209 | -48.47642 | 42 ft | 15 kts | 185° |
| 2026-04-26 06:11 | -1.38321 | -48.47652 | 42 ft | 17 kts | 185° |
| 2026-04-26 06:12 | -1.38453 | -48.47663 | 42 ft | 21 kts | 185° |
| 2026-04-26 06:12 | -1.38584 | -48.47674 | 43 ft | 14 kts | 185° |
| 2026-04-26 06:12 | -1.38643 | -48.47682 | 44 ft | 7 kts | 201° |
| 2026-04-26 06:12 | -1.38666 | -48.47720 | 43 ft | 7 kts | 263° |
| 2026-04-26 06:13 | -1.38668 | -48.47771 | 42 ft | 8 kts | 258° |
| 2026-04-26 06:13 | -1.38713 | -48.47796 | 42 ft | 8 kts | 186° |
| 2026-04-26 06:13 | -1.38782 | -48.47802 | 42 ft | 11 kts | 185° |
| 2026-04-26 06:13 | -1.38848 | -48.47807 | 42 ft | 6 kts | 192° |
| 2026-04-26 06:14 | -1.38879 | -48.47833 | 42 ft | 6 kts | 234° |
| 2026-04-26 06:14 | -1.38903 | -48.47866 | 42 ft | 6 kts | 234° |
| 2026-04-26 06:14 | -1.38920 | -48.47890 | 42 ft | 1 kts | 233° |
| 2026-04-26 06:14 | -1.38923 | -48.47895 | 42 ft | 0 kts | 233° |